Latest Weather Observations for Glen Innes Airport

IDN60801

Issued at 9:04 am EST Tuesday 4 August 2015 (issued every 30 minutes, with the page automatically refreshed every 10 minutes)

About weather observations | Map of weather stations | Latest weather observations for NSW | Other Formats
Station Details ID: 056243 Name: GLEN INNES AIRPORT AWS Lat: -29.68 Lon: 151.69 Height: 1044.3 m
Data from the previous 72 hours. | See also: Recent months at Glen Innes Airport
Date/Time
EST
Temp
°C
App
Temp
°C
Dew
Point
Rel
Hum
%
Delta-T
°C
Wind Press
QNH
hPa
Press
MSL
hPa
Rain
since 9 am
mm
Dir
 
Spd
km/h
Gust
km/h
Spd
kts
Gust
kts
04/09:00am 4.8 0.8 0.8 75 1.7 ESE 11 15 6 8 1020.9 1021.2 0.2
04/08:30am 2.7 -2.1 0.3 84 1.0 ESE 15 20 8 11 1020.9 1021.2 0.2
04/08:00am 0.4 -4.6 -1.5 87 0.7 ESE 15 20 8 11 1020.7 1020.9 0.2
04/07:30am -0.9 -6.0 -2.3 90 0.5 ESE 15 17 8 9 1020.5 1020.7 0.0
04/07:00am -2.0 -7.2 -3.1 92 0.3 E 15 20 8 11 1020.3 1020.5 0.0
04/06:30am -2.6 -7.5 -3.3 95 0.1 E 13 20 7 11 1020.0 1020.3 0.0
04/06:00am -4.2 -9.7 -5.0 94 0.1 E 15 20 8 11 1019.7 1019.9 0.0
04/05:30am -3.4 -8.4 -4.2 94 0.1 ESE 13 17 7 9 1019.4 1019.6 0.0
04/05:00am -2.9 -7.5 -3.9 93 0.2 ESE 11 15 6 8 1019.5 1019.7 0.0
04/04:30am -1.2 -7.1 -2.5 91 0.4 SSE 19 22 10 12 1019.4 1019.6 0.0
04/04:00am -1.7 -7.7 -3.0 91 0.4 ESE 19 20 10 11 1019.5 1019.7 0.0
04/03:30am -3.1 -8.1 -4.6 89 0.4 SE 13 17 7 9 1019.4 1019.6 0.0
04/03:00am -2.1 -7.7 -2.8 95 0.1 ESE 17 19 9 10 1019.4 1019.6 0.0
04/02:30am -3.9 -8.5 -4.3 97 0.0 E 11 15 6 8 1019.3 1019.5 0.0
04/02:00am -3.1 -6.9 -3.6 96 0.0 SE 7 11 4 6 1019.2 1019.3 0.0
04/01:30am -3.0 -7.5 -3.4 97 0.0 SSE 11 13 6 7 1019.4 1019.6 0.0
04/01:00am -2.2 -6.3 -3.0 94 0.2 ESE 9 11 5 6 1019.7 1019.9 0.0
04/12:30am -4.1 -8.5 -5.6 89 0.3 ESE 9 13 5 7 1019.9 1020.1 0.0
04/12:00am -2.2 -6.0 -5.2 80 0.9 ESE 6 7 3 4 1020.0 1020.3 0.0
 
Date/Time
EST
Temp
°C
App
Temp
°C
Dew
Point
Rel
Hum
%
Delta-T
°C
Wind Press
QNH
hPa
Press
MSL
hPa
Rain
since 9 am
mm
Dir
 
Spd
km/h
Gust
km/h
Spd
kts
Gust
kts
03/11:30pm 0.4 -3.2 -3.9 73 1.5 SE 6 7 3 4 1020.0 1020.3 0.0
03/11:00pm -1.4 -5.7 -5.2 75 1.2 SE 9 9 5 5 1020.3 1020.5 0.0
03/10:30pm -0.1 -3.9 -5.3 68 1.8 SE 6 7 3 4 1020.5 1020.7 0.0
03/10:00pm 0.6 -3.3 -4.4 69 1.8 S 7 9 4 5 1020.6 1020.8 0.0
03/09:30pm 0.2 -3.7 -5.0 68 1.8 SSE 7 13 4 7 1020.6 1020.8 0.0
03/09:00pm 0.9 -2.8 -4.7 66 2.0 SE 6 7 3 4 1020.5 1020.7 0.0
03/08:30pm 2.2 -2.1 -5.0 59 2.6 S 9 11 5 6 1020.5 1020.7 0.0
03/08:00pm 2.9 -1.0 -6.2 51 3.3 WSW 6 7 3 4 1020.4 1020.6 0.0
03/07:30pm 6.7 2.4 -5.3 42 4.4 WSW 9 9 5 5 1020.0 1020.3 0.0
03/07:00pm 5.8 1.8 -5.5 44 4.0 WNW 7 9 4 5 1019.9 1020.1 0.0
03/06:30pm 7.8 1.6 -5.3 39 4.8 W 19 24 10 13 1019.7 1019.9 0.0
03/06:00pm 9.2 3.5 -7.0 31 5.8 SW 15 17 8 9 1019.4 1019.6 0.0
03/05:30pm 10.9 5.3 -2.8 38 5.6 WSW 17 20 9 11 1019.1 1019.2 0.0
03/05:00pm 13.3 8.3 3.7 52 4.6 W 19 24 10 13 1018.6 1018.8 0.0
03/04:30pm 14.4 8.9 4.1 50 5.0 W 22 30 12 16 1018.3 1018.4 0.0
03/04:00pm 15.0 7.9 3.5 46 5.5 W 30 39 16 21 1017.9 1018.1 0.0
03/03:30pm 15.5 8.0 3.6 45 5.8 WNW 32 39 17 21 1017.6 1017.8 0.0
03/03:00pm 16.2 9.1 3.6 43 6.1 WNW 30 41 16 22 1017.6 1017.8 0.0
03/02:30pm 16.6 8.9 3.6 42 6.4 W 33 43 18 23 1017.5 1017.6 0.0
03/02:00pm 16.7 9.4 5.6 48 5.7 WNW 33 44 18 24 1017.5 1017.6 0.0
03/01:30pm 16.9 9.7 5.2 46 5.9 WNW 32 37 17 20 1017.7 1017.9 0.0
03/01:00pm 17.5 10.3 4.8 43 6.4 W 32 39 17 21 1017.9 1018.1 0.0
03/12:30pm 17.9 10.3 2.6 36 7.4 W 32 43 17 23 1018.1 1018.2 0.0
03/12:00pm 17.5 9.8 2.3 36 7.3 W 32 39 17 21 1018.4 1018.6 0.0
03/11:30am 17.2 10.7 4.5 43 6.4 WNW 28 39 15 21 1018.9 1019.1 0.0
03/11:00am 16.1 10.2 5.7 50 5.3 W 26 33 14 18 1019.4 1019.6 0.0
03/10:30am 15.2 10.5 6.2 55 4.6 W 20 30 11 16 1019.5 1019.7 0.0
03/10:00am 14.1 9.7 6.5 60 3.9 WNW 19 24 10 13 1019.8 1020.0 0.0
03/09:30am 13.4 9.1 7.0 65 3.3 NW 19 24 10 13 1019.8 1020.0 0.0
03/09:00am 13.0 8.6 6.4 64 3.3 WNW 19 24 10 13 1019.7 1019.9 0.0
03/08:30am 11.4 8.8 6.3 71 2.5 WSW 9 13 5 7 1019.6 1019.8 0.0
03/08:00am 10.4 9.8 7.6 83 1.4 CALM 0 0 0 0 1019.3 1019.5 0.0
03/07:30am 6.6 5.5 5.2 91 0.7 CALM 0 0 0 0 1019.1 1019.2 0.0
03/07:00am 3.9 2.2 2.1 88 0.8 CALM 0 0 0 0 1019.2 1019.3 0.0
03/06:30am 4.2 2.6 2.4 88 0.8 CALM 0 0 0 0 1018.8 1019.0 0.0
03/06:00am 4.9 3.4 2.8 86 0.9 CALM 0 0 0 0 1018.9 1019.1 0.0
03/05:30am 5.0 1.9 1.3 77 1.6 WSW 7 9 4 5 1018.8 1019.0 0.0
03/05:00am 6.9 3.4 3.5 79 1.5 W 11 15 6 8 1018.8 1019.0 0.0
03/04:30am 8.1 3.9 3.9 75 1.9 WNW 15 20 8 11 1018.7 1018.9 0.0
03/04:00am 9.6 4.9 5.0 73 2.2 NW 19 22 10 12 1018.6 1018.8 0.0
03/03:30am 9.1 4.7 4.5 73 2.2 WNW 17 20 9 11 1018.7 1018.9 0.0
03/03:00am 9.5 4.6 4.3 70 2.4 NW 19 24 10 13 1018.9 1019.1 0.0
03/02:30am 9.0 4.5 4.2 72 2.2 NW 17 20 9 11 1019.3 1019.5 0.0
03/02:00am 8.7 4.1 3.9 72 2.2 WNW 17 20 9 11 1019.7 1019.9 0.0
03/01:30am 9.5 5.1 4.7 72 2.3 WNW 17 20 9 11 1019.9 1020.1 0.0
03/01:00am 10.5 5.7 4.9 68 2.7 NW 19 24 10 13 1020.2 1020.4 0.0
03/12:30am 8.7 5.0 4.7 76 1.9 WNW 13 15 7 8 1020.5 1020.7 0.0
03/12:00am 9.8 5.9 5.4 74 2.1 NW 15 20 8 11 1020.6 1020.8 0.0
 
Date/Time
EST
Temp
°C
App
Temp
°C
Dew
Point
Rel
Hum
%
Delta-T
°C
Wind Press
QNH
hPa
Press
MSL
hPa
Rain
since 9 am
mm
Dir
 
Spd
km/h
Gust
km/h
Spd
kts
Gust
kts
02/11:30pm 8.6 4.2 5.0 78 1.7 WNW 17 20 9 11 1020.9 1021.2 0.0
02/11:00pm 9.9 5.7 5.9 76 2.0 NW 17 20 9 11 1021.0 1021.3 0.0
02/10:30pm 8.4 4.9 5.5 82 1.4 WNW 13 20 7 11 1021.4 1021.6 0.0
02/10:00pm 7.6 3.9 4.7 82 1.4 WNW 13 15 7 8 1021.6 1021.8 0.0
02/09:30pm 7.6 3.6 4.9 83 1.3 WNW 15 15 8 8 1021.7 1022.0 0.0
02/09:00pm 7.7 3.3 4.8 82 1.4 W 17 19 9 10 1021.9 1022.2 0.0
02/08:30pm 8.0 4.0 4.8 80 1.5 WNW 15 17 8 9 1021.8 1022.1 0.0
02/08:00pm 9.4 5.2 5.6 77 1.8 WNW 17 20 9 11 1021.7 1022.0 0.0
02/07:30pm 8.8 4.6 5.5 80 1.6 WNW 17 19 9 10 1021.5 1021.7 0.0
02/07:00pm 8.3 4.5 3.9 74 2.0 WNW 13 15 7 8 1021.2 1021.4 0.0
02/06:30pm 10.9 7.1 5.9 71 2.5 NW 15 20 8 11 1020.8 1021.0 0.0
02/06:00pm 11.3 7.0 5.4 67 2.9 NW 17 20 9 11 1020.7 1020.9 0.0
02/05:30pm 12.9 8.3 5.8 62 3.5 WNW 19 24 10 13 1020.6 1020.8 0.0
02/05:00pm 14.5 9.0 6.1 57 4.3 NW 24 32 13 17 1020.4 1020.6 0.0
02/04:30pm 15.7 9.4 5.6 51 5.1 NW 28 35 15 19 1020.4 1020.6 0.0
02/04:00pm 16.3 9.5 5.0 47 5.7 NW 30 39 16 21 1020.4 1020.6 0.0
02/03:30pm 16.8 9.5 4.5 44 6.1 WNW 32 43 17 23 1020.4 1020.6 0.0
02/03:00pm 16.9 10.1 4.9 45 6.0 NW 30 39 16 21 1020.5 1020.7 0.0
02/02:30pm 17.1 9.7 4.8 44 6.2 NW 33 48 18 26 1020.5 1020.7 0.0
02/02:16pm 17.3 10.7 4.3 42 6.5 NW 28 46 15 25 1020.4 1020.6 0.0
02/02:00pm 17.6 10.4 5.2 44 6.3 NW 32 41 17 22 1020.6 1020.8 0.0
02/01:30pm 17.3 10.4 4.6 43 6.4 NW 30 39 16 21 1020.9 1021.2 0.0
02/01:00pm 17.4 10.7 5.7 46 6.0 NW 30 39 16 21 1021.4 1021.6 0.0
02/12:30pm 17.4 10.8 6.0 47 5.9 NW 30 39 16 21 1021.9 1022.2 0.0
02/12:00pm 16.5 10.2 5.8 49 5.5 NW 28 35 15 19 1022.5 1022.7 0.0
02/11:30am 16.4 10.2 6.0 50 5.3 NW 28 35 15 19 1023.1 1023.4 0.0
02/11:00am 15.7 9.3 7.0 56 4.5 NW 30 39 16 21 1023.7 1024.0 0.0
02/10:30am 15.2 10.4 7.2 59 4.2 NW 22 30 12 16 1024.1 1024.4 0.0
02/10:00am 14.5 8.8 6.6 59 4.0 NW 26 35 14 19 1024.4 1024.7 0.0
02/09:30am 13.6 7.9 5.0 56 4.2 NW 24 32 13 17 1024.3 1024.6 0.0
02/09:00am 12.7 8.9 5.6 62 3.5 NW 15 20 8 11 1024.1 1024.4 0.0
02/08:30am 10.9 8.1 5.0 67 2.9 NW 9 11 5 6 1024.1 1024.4 0.0
02/08:00am 7.9 6.8 5.0 82 1.4 CALM 0 0 0 0 1024.1 1024.4 0.0
02/07:30am 3.4 1.8 2.5 94 0.4 CALM 0 0 0 0 1024.0 1024.3 0.0
02/07:00am 0.7 -1.7 -0.2 94 0.3 SE 2 6 1 3 1023.9 1024.2 0.0
02/06:30am 0.1 -3.1 -0.6 95 0.3 SE 6 7 3 4 1023.7 1024.0 0.0
02/06:00am 0.1 -3.1 -0.7 94 0.3 SE 6 6 3 3 1023.6 1023.9 0.0
02/05:30am -0.1 -3.6 -1.1 93 0.4 SSE 7 9 4 5 1023.4 1023.7 0.0
02/05:00am -0.1 -3.9 -1.1 93 0.4 SE 9 9 5 5 1023.3 1023.5 0.0
02/04:30am 0.0 -3.4 -0.8 94 0.3 ESE 7 9 4 5 1023.1 1023.4 0.0
02/04:00am 0.2 -3.6 -0.6 94 0.3 ESE 9 11 5 6 1023.1 1023.4 0.0
02/03:30am -0.4 -3.9 -1.4 93 0.4 SSE 7 11 4 6 1023.3 1023.5 0.0
02/03:00am 0.0 -3.5 -1.1 92 0.4 SE 7 11 4 6 1023.6 1023.9 0.0
02/02:30am 0.8 -2.4 -0.2 93 0.4 SE 6 7 3 4 1023.8 1024.1 0.0
02/02:00am 0.4 -3.0 -0.4 94 0.3 SSE 7 11 4 6 1023.9 1024.2 0.0
02/01:30am 0.5 -2.9 -0.6 92 0.4 SSE 7 9 4 5 1024.0 1024.3 0.0
02/01:00am 1.1 -2.2 0.2 94 0.4 SE 7 7 4 4 1024.3 1024.6 0.0
02/12:30am 1.4 -1.7 0.4 93 0.4 ESE 6 7 3 4 1024.4 1024.7 0.0
02/12:00am 1.4 -2.3 -0.1 90 0.6 ESE 9 11 5 6 1024.5 1024.8 0.0
 
Date/Time
EST
Temp
°C
App
Temp
°C
Dew
Point
Rel
Hum
%
Delta-T
°C
Wind Press
QNH
hPa
Press
MSL
hPa
Rain
since 9 am
mm
Dir
 
Spd
km/h
Gust
km/h
Spd
kts
Gust
kts
01/11:30pm 1.8 -1.8 0.5 91 0.5 SE 9 11 5 6 1024.5 1024.8 0.0
01/11:00pm 2.2 -0.9 0.3 87 0.8 SSE 6 7 3 4 1024.6 1024.9 0.0
01/10:30pm 3.5 1.7 1.1 84 1.0 CALM 0 2 0 1 1024.6 1024.9 0.0
01/10:00pm 3.0 0.0 0.9 86 0.9 ENE 6 6 3 3 1024.6 1024.9 0.0
01/09:30pm 5.3 2.4 1.6 77 1.6 ENE 6 6 3 3 1024.6 1024.9 0.0
01/09:00pm 4.7 1.2 1.4 79 1.4 ENE 9 9 5 5 1024.5 1024.8 0.0
01/08:30pm 6.5 3.4 1.4 70 2.2 W 7 11 4 6 1024.5 1024.8 0.0
01/08:00pm 9.0 5.4 3.0 66 2.7 WNW 11 11 6 6 1024.3 1024.6 0.0
01/07:30pm 9.3 5.6 2.6 63 3.0 WNW 11 13 6 7 1024.0 1024.3 0.0
01/07:00pm 9.8 6.2 2.9 62 3.1 W 11 15 6 8 1023.7 1024.0 0.0
01/06:30pm 9.6 5.2 2.9 63 3.1 WNW 15 17 8 9 1023.3 1023.5 0.0
01/06:00pm 10.7 6.3 2.8 58 3.6 WNW 15 20 8 11 1023.0 1023.3 0.0
01/05:30pm 11.2 6.4 2.5 55 4.0 WNW 17 20 9 11 1022.6 1022.9 0.0
01/05:00pm 13.7 8.8 2.3 46 5.3 WNW 17 20 9 11 1022.7 1023.0 0.0
01/04:30pm 15.5 10.0 2.0 40 6.3 WNW 20 26 11 14 1022.7 1023.0 0.0
01/04:00pm 16.3 10.3 1.2 36 7.0 WNW 22 28 12 15 1022.5 1022.7 0.0
01/03:30pm 17.0 10.4 1.8 36 7.2 W 26 30 14 16 1022.6 1022.9 0.0
01/03:00pm 17.5 11.3 1.9 35 7.4 W 24 33 13 18 1022.6 1022.9 0.0
01/02:30pm 17.8 11.7 2.5 36 7.4 W 24 30 13 16 1022.4 1022.6 0.0
01/02:00pm 17.9 11.8 2.6 36 7.4 WNW 24 32 13 17 1022.5 1022.7 0.0
01/01:30pm 18.1 11.6 2.8 36 7.5 WNW 26 33 14 18 1022.7 1023.0 0.0
01/01:00pm 17.7 12.2 2.1 35 7.4 NW 20 28 11 15 1022.9 1023.2 0.0
01/12:30pm 17.4 11.9 1.8 35 7.4 NW 20 26 11 14 1023.1 1023.4 0.0
01/12:00pm 17.1 12.0 0.7 33 7.6 NW 17 22 9 12 1023.6 1023.9 0.0
01/11:30am 15.9 10.6 -0.3 33 7.3 WNW 17 22 9 12 1024.1 1024.4 0.0
01/11:00am 15.5 10.1 -1.5 31 7.4 WNW 17 24 9 13 1024.5 1024.8 0.0
01/10:30am 14.2 10.7 1.5 42 5.8 NNW 9 13 5 7 1024.5 1024.8 0.0
01/10:00am 12.5 9.9 4.0 56 4.1 NW 7 11 4 6 1024.7 1025.0 0.0
01/09:30am 11.5 10.2 4.3 61 3.4 CALM 0 0 0 0 1024.9 1025.6 0.0

Other Formats:

Comma delimited format used in spreadsheet applications
http://www.bom.gov.au/fwo/IDN60801/IDN60801.94588.axf

JavaScript Object Notation format (JSON) in row-major order
http://www.bom.gov.au/fwo/IDN60801/IDN60801.94588.json